South West City, MO (64863)

6:56 PM CDT on April 18, 2015 (GMT -0500)
FryeComp -2 Mi/S SWC | | Change Station
CLOSE
Current Station
Personal Weather Station
Location: Gravette, AR
Elevation: 1138 ft
Nearby Weather Stations

Elev 1138 ft 36.48 °N, 94.61 °W | Updated 17 seconds ago

Mostly Cloudy
Mostly Cloudy
70.5 °F
Feels Like 74 °F
N
3.0
Wind Variable Wind from ESE
Gusts 7.0 mph

Today
High -- | Low -- °F
--% Chance of Precip.
Yesterday
High -- | Low -- °F
Precip. -- in
6:41 AM 7:55 PM
New Moon, 0% visible
Pressure 29.82 in
Visibility 10.0 miles
Clouds Mostly Cloudy 12000 ft
Heat Index 74 °F
Dew Point 61 °F
Humidity 72%
Rainfall 0.70 in
Snow Depth Not available.
UV 1 out of 12
Pollen 2.40 out of 12
Air Quality Not available.
Flu Activity Local Activity
METAR KGMJ 182335Z AUTO 10004KT 10SM BKN120 23/15 A2982 RMK AO2

More Conditions Fewer Conditions

Pressure 29.82 in
Visibility 10.0 miles
Clouds Mostly Cloudy 12000 ft
Heat Index 74 °F
Dew Point 61 °F
Humidity 72%
Rainfall 0.70 in
Snow Depth Not available.
UV 1 out of 12
Pollen 2.40 out of 12
Air Quality Not available.
Flu Activity Local Activity
METAR KGMJ 182335Z AUTO 10004KT 10SM BKN120 23/15 A2982 RMK AO2

More Conditions Fewer Conditions

10-Day Weather Forecast

Almanac

Astronomy

Apr. 18, 2015 Rise Set
Actual Time
Civil Twilight
Nautical Twilight
Astronomical Twilight
Moon
Length of Visible Light
Length of Day
Tomorrow will be .
, % of the Moon is Illuminated

Today's Extremes

State Highs State Lows

Community

WunderPhotos

Upload Photos

1,814,580 photos uploaded!

WunderBlogs® & News

Nearby

Air Quality

  Air Quality AQ Index Pollutant
Not available.

Snow Depth

Station Depth Elevation

Earthquake Activity

City Distance Mag. Time & Date
Minimum magnitude displayed is 2.5.

Coastal Water Temperatures

Place Temperature

Stations

Nearby Weather Stations

Station Location Temp. Windchill Dew Point Humidity Wind Precip. Elev Updated Type